High Meadows, Illinois
Current Conditions -  °F | °C
As of 8:54 PM on Tuesday 21 Oct 2014 (Local Time) from KPIA Reporting Station
Clear Clear  
Wind Chill: 45°   Ceiling: Unl
Heat Index: 49°   Visibility: 10mi
Dew Point: 39°   Wind: 10mph
Humidity: 69%   Direction: 60°ENE
Pressure: 30.23"   Gusts: NA
Location:  40.6465°N, 89.6859°W
Report Text: KPIA 220154Z 06009KT 10SM CLR 09/04 A3023 RMK AO2 SLP238 T00940039
Loading
Personal Weather Stations






























Interactive Weather Map
Tropical Storm Tracking
New forecast layout! Learn more

10-Day Weather Forecast

Advertisements
Track Severe Weather on mobile